sensor_id;sensor_type;location;lat;lon;timestamp;P1;durP1;ratioP1;P2;durP2;ratioP2
74935;SDS011;63501;55.570;37.488;2022-09-27T00:00:21;2.55;;;0.35;;
74935;SDS011;63501;55.570;37.488;2022-09-27T00:02:47;1.17;;;0.60;;
74935;SDS011;63501;55.570;37.488;2022-09-27T00:05:13;0.43;;;0.43;;
74935;SDS011;63501;55.570;37.488;2022-09-27T00:07:39;0.95;;;0.80;;
74935;SDS011;63501;55.570;37.488;2022-09-27T00:10:05;6.43;;;0.75;;
74935;SDS011;63501;55.570;37.488;2022-09-27T00:12:32;0.10;;;0.10;;
74935;SDS011;63501;55.570;37.488;2022-09-27T00:14:58;0.57;;;0.57;;
74935;SDS011;63501;55.570;37.488;2022-09-27T00:17:24;1.50;;;1.42;;
74935;SDS011;63501;55.570;37.488;2022-09-27T00:19:51;0.65;;;0.65;;
74935;SDS011;63501;55.570;37.488;2022-09-27T00:22:17;0.35;;;0.35;;
74935;SDS011;63501;55.570;37.488;2022-09-27T00:24:42;0.68;;;0.68;;
74935;SDS011;63501;55.570;37.488;2022-09-27T00:27:08;0.35;;;0.35;;
74935;SDS011;63501;55.570;37.488;2022-09-27T00:29:34;0.50;;;0.43;;
74935;SDS011;63501;55.570;37.488;2022-09-27T00:31:59;1.20;;;1.08;;
74935;SDS011;63501;55.570;37.488;2022-09-27T00:34:25;3.35;;;1.92;;
74935;SDS011;63501;55.570;37.488;2022-09-27T00:36:51;0.38;;;0.38;;
74935;SDS011;63501;55.570;37.488;2022-09-27T00:39:17;1.15;;;1.13;;
74935;SDS011;63501;55.570;37.488;2022-09-27T00:41:43;9.15;;;0.70;;
74935;SDS011;63501;55.570;37.488;2022-09-27T00:47:01;1.30;;;1.00;;
74935;SDS011;63501;55.570;37.488;2022-09-27T00:52:41;0.10;;;0.10;;
74935;SDS011;63501;55.570;37.488;2022-09-27T00:55:15;0.40;;;0.40;;
74935;SDS011;63501;55.570;37.488;2022-09-27T00:57:47;3.03;;;0.57;;
74935;SDS011;63501;55.570;37.488;2022-09-27T01:00:15;0.57;;;0.57;;
74935;SDS011;63501;55.570;37.488;2022-09-27T01:02:42;1.40;;;1.30;;
74935;SDS011;63501;55.570;37.488;2022-09-27T01:05:11;0.60;;;0.60;;
74935;SDS011;63501;55.570;37.488;2022-09-27T01:07:39;0.40;;;0.40;;
74935;SDS011;63501;55.570;37.488;2022-09-27T01:10:05;2.53;;;0.35;;
74935;SDS011;63501;55.570;37.488;2022-09-27T01:12:41;0.30;;;0.30;;
74935;SDS011;63501;55.570;37.488;2022-09-27T01:34:10;0.00;;;0.00;;
74935;SDS011;63501;55.570;37.488;2022-09-27T01:42:28;0.55;;;0.55;;
74935;SDS011;63501;55.570;37.488;2022-09-27T01:47:32;1.08;;;0.63;;
74935;SDS011;63501;55.570;37.488;2022-09-27T01:50:13;0.93;;;0.57;;
74935;SDS011;63501;55.570;37.488;2022-09-27T01:55:37;0.40;;;0.35;;
74935;SDS011;63501;55.570;37.488;2022-09-27T01:58:10;0.38;;;0.38;;
74935;SDS011;63501;55.570;37.488;2022-09-27T02:00:45;1.10;;;0.90;;
74935;SDS011;63501;55.570;37.488;2022-09-27T02:03:14;0.47;;;0.32;;
74935;SDS011;63501;55.570;37.488;2022-09-27T02:06:01;0.30;;;0.30;;
74935;SDS011;63501;55.570;37.488;2022-09-27T02:11:19;2.53;;;1.17;;
74935;SDS011;63501;55.570;37.488;2022-09-27T02:13:47;0.68;;;0.68;;
74935;SDS011;63501;55.570;37.488;2022-09-27T02:21:54;1.27;;;1.27;;
74935;SDS011;63501;55.570;37.488;2022-09-27T02:24:44;0.65;;;0.65;;
74935;SDS011;63501;55.570;37.488;2022-09-27T02:30:31;1.52;;;1.00;;
74935;SDS011;63501;55.570;37.488;2022-09-27T02:32:57;0.20;;;0.20;;
74935;SDS011;63501;55.570;37.488;2022-09-27T02:35:32;4.20;;;0.90;;
74935;SDS011;63501;55.570;37.488;2022-09-27T02:38:00;2.28;;;1.00;;
74935;SDS011;63501;55.570;37.488;2022-09-27T02:40:35;0.20;;;0.20;;
74935;SDS011;63501;55.570;37.488;2022-09-27T02:43:06;0.50;;;0.50;;
74935;SDS011;63501;55.570;37.488;2022-09-27T02:45:46;1.38;;;0.93;;
74935;SDS011;63501;55.570;37.488;2022-09-27T02:52:00;0.70;;;0.70;;
74935;SDS011;63501;55.570;37.488;2022-09-27T02:57:13;0.80;;;0.80;;
74935;SDS011;63501;55.570;37.488;2022-09-27T03:05:19;0.30;;;0.30;;
74935;SDS011;63501;55.570;37.488;2022-09-27T03:07:49;1.33;;;1.30;;
74935;SDS011;63501;55.570;37.488;2022-09-27T03:10:18;0.88;;;0.88;;
74935;SDS011;63501;55.570;37.488;2022-09-27T03:12:49;0.47;;;0.47;;
74935;SDS011;63501;55.570;37.488;2022-09-27T03:15:15;2.97;;;1.17;;
74935;SDS011;63501;55.570;37.488;2022-09-27T03:17:41;0.47;;;0.40;;
74935;SDS011;63501;55.570;37.488;2022-09-27T03:20:06;0.93;;;0.45;;
74935;SDS011;63501;55.570;37.488;2022-09-27T03:22:33;0.45;;;0.35;;
74935;SDS011;63501;55.570;37.488;2022-09-27T03:24:59;0.40;;;0.40;;
74935;SDS011;63501;55.570;37.488;2022-09-27T03:27:25;1.60;;;0.75;;
74935;SDS011;63501;55.570;37.488;2022-09-27T03:29:50;0.55;;;0.55;;
74935;SDS011;63501;55.570;37.488;2022-09-27T03:32:16;1.95;;;1.02;;
74935;SDS011;63501;55.570;37.488;2022-09-27T03:34:42;0.52;;;0.52;;
74935;SDS011;63501;55.570;37.488;2022-09-27T03:37:08;1.80;;;0.60;;
74935;SDS011;63501;55.570;37.488;2022-09-27T03:39:34;0.47;;;0.47;;
74935;SDS011;63501;55.570;37.488;2022-09-27T03:41:59;0.28;;;0.28;;
74935;SDS011;63501;55.570;37.488;2022-09-27T03:44:25;0.10;;;0.10;;
74935;SDS011;63501;55.570;37.488;2022-09-27T03:46:50;0.30;;;0.30;;
74935;SDS011;63501;55.570;37.488;2022-09-27T03:49:16;0.45;;;0.30;;
74935;SDS011;63501;55.570;37.488;2022-09-27T03:51:41;0.85;;;0.85;;
74935;SDS011;63501;55.570;37.488;2022-09-27T03:54:07;0.65;;;0.55;;
74935;SDS011;63501;55.570;37.488;2022-09-27T03:56:33;0.80;;;0.15;;
74935;SDS011;63501;55.570;37.488;2022-09-27T03:58:59;2.05;;;1.15;;
74935;SDS011;63501;55.570;37.488;2022-09-27T04:01:25;1.40;;;1.23;;
74935;SDS011;63501;55.570;37.488;2022-09-27T04:03:52;0.43;;;0.43;;
74935;SDS011;63501;55.570;37.488;2022-09-27T04:06:17;0.20;;;0.20;;
74935;SDS011;63501;55.570;37.488;2022-09-27T04:08:43;0.95;;;0.75;;
74935;SDS011;63501;55.570;37.488;2022-09-27T04:11:10;0.35;;;0.35;;
74935;SDS011;63501;55.570;37.488;2022-09-27T04:13:36;2.58;;;1.38;;
74935;SDS011;63501;55.570;37.488;2022-09-27T04:16:01;0.32;;;0.32;;
74935;SDS011;63501;55.570;37.488;2022-09-27T04:18:27;0.25;;;0.17;;
74935;SDS011;63501;55.570;37.488;2022-09-27T04:20:53;1.00;;;0.98;;
74935;SDS011;63501;55.570;37.488;2022-09-27T04:23:19;0.82;;;0.80;;
74935;SDS011;63501;55.570;37.488;2022-09-27T04:25:45;0.45;;;0.45;;
74935;SDS011;63501;55.570;37.488;2022-09-27T04:28:11;1.75;;;0.63;;
74935;SDS011;63501;55.570;37.488;2022-09-27T04:30:37;0.57;;;0.57;;
74935;SDS011;63501;55.570;37.488;2022-09-27T04:33:03;1.13;;;1.08;;
74935;SDS011;63501;55.570;37.488;2022-09-27T04:35:29;1.58;;;1.38;;
74935;SDS011;63501;55.570;37.488;2022-09-27T04:38:13;0.13;;;0.13;;
74935;SDS011;63501;55.570;37.488;2022-09-27T04:40:39;1.45;;;1.45;;
74935;SDS011;63501;55.570;37.488;2022-09-27T04:43:06;0.35;;;0.20;;
74935;SDS011;63501;55.570;37.488;2022-09-27T04:45:32;2.40;;;1.58;;
74935;SDS011;63501;55.570;37.488;2022-09-27T04:47:58;0.88;;;0.70;;
74935;SDS011;63501;55.570;37.488;2022-09-27T04:50:23;2.28;;;1.20;;
74935;SDS011;63501;55.570;37.488;2022-09-27T04:52:49;1.20;;;1.10;;
74935;SDS011;63501;55.570;37.488;2022-09-27T04:55:16;0.60;;;0.60;;
74935;SDS011;63501;55.570;37.488;2022-09-27T04:57:42;0.93;;;0.88;;
74935;SDS011;63501;55.570;37.488;2022-09-27T05:00:08;0.85;;;0.68;;
74935;SDS011;63501;55.570;37.488;2022-09-27T05:02:35;3.65;;;1.70;;
74935;SDS011;63501;55.570;37.488;2022-09-27T05:05:01;1.13;;;1.13;;
74935;SDS011;63501;55.570;37.488;2022-09-27T05:07:26;1.20;;;1.20;;
74935;SDS011;63501;55.570;37.488;2022-09-27T05:09:52;2.55;;;1.20;;
74935;SDS011;63501;55.570;37.488;2022-09-27T05:12:19;0.65;;;0.47;;
74935;SDS011;63501;55.570;37.488;2022-09-27T05:14:45;0.55;;;0.47;;
74935;SDS011;63501;55.570;37.488;2022-09-27T05:17:10;1.45;;;0.50;;
74935;SDS011;63501;55.570;37.488;2022-09-27T05:19:36;0.55;;;0.52;;
74935;SDS011;63501;55.570;37.488;2022-09-27T05:22:05;2.03;;;0.60;;
74935;SDS011;63501;55.570;37.488;2022-09-27T05:24:31;0.75;;;0.75;;
74935;SDS011;63501;55.570;37.488;2022-09-27T05:27:00;1.10;;;0.88;;
74935;SDS011;63501;55.570;37.488;2022-09-27T05:29:26;0.68;;;0.60;;
74935;SDS011;63501;55.570;37.488;2022-09-27T05:31:52;0.57;;;0.57;;
74935;SDS011;63501;55.570;37.488;2022-09-27T05:34:18;0.22;;;0.22;;
74935;SDS011;63501;55.570;37.488;2022-09-27T05:36:46;1.00;;;1.00;;
74935;SDS011;63501;55.570;37.488;2022-09-27T05:39:12;1.27;;;1.17;;
74935;SDS011;63501;55.570;37.488;2022-09-27T05:41:40;0.30;;;0.30;;
74935;SDS011;63501;55.570;37.488;2022-09-27T05:44:06;1.85;;;1.20;;
74935;SDS011;63501;55.570;37.488;2022-09-27T05:46:32;0.82;;;0.30;;
74935;SDS011;63501;55.570;37.488;2022-09-27T05:48:57;1.00;;;1.00;;
74935;SDS011;63501;55.570;37.488;2022-09-27T05:51:23;1.02;;;0.93;;
74935;SDS011;63501;55.570;37.488;2022-09-27T05:53:49;0.73;;;0.73;;
74935;SDS011;63501;55.570;37.488;2022-09-27T05:56:14;2.80;;;1.30;;
74935;SDS011;63501;55.570;37.488;2022-09-27T05:58:41;0.40;;;0.40;;
74935;SDS011;63501;55.570;37.488;2022-09-27T06:01:07;0.22;;;0.22;;
74935;SDS011;63501;55.570;37.488;2022-09-27T06:03:34;1.50;;;1.30;;
74935;SDS011;63501;55.570;37.488;2022-09-27T06:06:01;0.47;;;0.47;;
74935;SDS011;63501;55.570;37.488;2022-09-27T06:08:34;0.70;;;0.70;;
74935;SDS011;63501;55.570;37.488;2022-09-27T06:11:01;0.88;;;0.63;;
74935;SDS011;63501;55.570;37.488;2022-09-27T06:13:28;0.95;;;0.95;;
74935;SDS011;63501;55.570;37.488;2022-09-27T06:15:54;0.70;;;0.50;;
74935;SDS011;63501;55.570;37.488;2022-09-27T06:18:20;1.05;;;0.45;;
74935;SDS011;63501;55.570;37.488;2022-09-27T06:20:45;0.35;;;0.35;;
74935;SDS011;63501;55.570;37.488;2022-09-27T06:23:15;0.65;;;0.65;;
74935;SDS011;63501;55.570;37.488;2022-09-27T06:25:43;0.63;;;0.50;;
74935;SDS011;63501;55.570;37.488;2022-09-27T06:28:09;0.77;;;0.77;;
74935;SDS011;63501;55.570;37.488;2022-09-27T06:30:39;0.47;;;0.47;;
74935;SDS011;63501;55.570;37.488;2022-09-27T06:33:10;0.88;;;0.63;;
74935;SDS011;63501;55.570;37.488;2022-09-27T06:35:38;0.20;;;0.20;;
74935;SDS011;63501;55.570;37.488;2022-09-27T06:38:04;1.38;;;0.45;;
74935;SDS011;63501;55.570;37.488;2022-09-27T06:40:33;0.38;;;0.38;;
74935;SDS011;63501;55.570;37.488;2022-09-27T06:43:03;0.40;;;0.40;;
74935;SDS011;63501;55.570;37.488;2022-09-27T06:45:33;0.13;;;0.13;;
74935;SDS011;63501;55.570;37.488;2022-09-27T06:48:00;1.98;;;0.65;;
74935;SDS011;63501;55.570;37.488;2022-09-27T06:50:35;3.00;;;0.32;;
74935;SDS011;63501;55.570;37.488;2022-09-27T06:53:06;0.85;;;0.75;;
74935;SDS011;63501;55.570;37.488;2022-09-27T06:55:34;0.25;;;0.25;;
74935;SDS011;63501;55.570;37.488;2022-09-27T06:58:00;0.80;;;0.55;;
74935;SDS011;63501;55.570;37.488;2022-09-27T07:00:47;0.20;;;0.20;;
74935;SDS011;63501;55.570;37.488;2022-09-27T07:03:14;0.65;;;0.50;;
74935;SDS011;63501;55.570;37.488;2022-09-27T07:05:40;0.22;;;0.20;;
74935;SDS011;63501;55.570;37.488;2022-09-27T07:08:08;0.50;;;0.50;;
74935;SDS011;63501;55.570;37.488;2022-09-27T07:10:36;0.50;;;0.50;;
74935;SDS011;63501;55.570;37.488;2022-09-27T07:13:03;0.55;;;0.55;;
74935;SDS011;63501;55.570;37.488;2022-09-27T07:15:30;0.82;;;0.82;;
74935;SDS011;63501;55.570;37.488;2022-09-27T07:18:00;0.08;;;0.03;;
74935;SDS011;63501;55.570;37.488;2022-09-27T07:20:26;0.60;;;0.60;;
74935;SDS011;63501;55.570;37.488;2022-09-27T07:22:53;1.65;;;0.75;;
74935;SDS011;63501;55.570;37.488;2022-09-27T07:25:19;2.50;;;0.60;;
74935;SDS011;63501;55.570;37.488;2022-09-27T07:27:45;0.52;;;0.47;;
74935;SDS011;63501;55.570;37.488;2022-09-27T07:30:11;0.52;;;0.52;;
74935;SDS011;63501;55.570;37.488;2022-09-27T07:32:38;0.80;;;0.57;;
74935;SDS011;63501;55.570;37.488;2022-09-27T07:35:04;0.47;;;0.47;;
74935;SDS011;63501;55.570;37.488;2022-09-27T07:37:31;2.42;;;0.40;;
74935;SDS011;63501;55.570;37.488;2022-09-27T07:39:58;0.47;;;0.47;;
74935;SDS011;63501;55.570;37.488;2022-09-27T07:42:24;0.35;;;0.35;;
74935;SDS011;63501;55.570;37.488;2022-09-27T07:44:50;0.50;;;0.50;;
74935;SDS011;63501;55.570;37.488;2022-09-27T07:47:16;0.25;;;0.25;;
74935;SDS011;63501;55.570;37.488;2022-09-27T07:49:43;0.30;;;0.30;;
74935;SDS011;63501;55.570;37.488;2022-09-27T07:52:09;0.30;;;0.30;;
74935;SDS011;63501;55.570;37.488;2022-09-27T07:54:34;1.25;;;1.02;;
74935;SDS011;63501;55.570;37.488;2022-09-27T07:57:01;0.52;;;0.52;;
74935;SDS011;63501;55.570;37.488;2022-09-27T07:59:27;1.30;;;0.50;;
74935;SDS011;63501;55.570;37.488;2022-09-27T08:01:53;0.38;;;0.30;;
74935;SDS011;63501;55.570;37.488;2022-09-27T08:04:20;1.00;;;0.77;;
74935;SDS011;63501;55.570;37.488;2022-09-27T08:06:46;1.00;;;0.50;;
74935;SDS011;63501;55.570;37.488;2022-09-27T08:09:11;0.50;;;0.30;;
74935;SDS011;63501;55.570;37.488;2022-09-27T08:11:37;3.17;;;0.40;;
74935;SDS011;63501;55.570;37.488;2022-09-27T08:14:03;0.85;;;0.63;;
74935;SDS011;63501;55.570;37.488;2022-09-27T08:16:29;0.95;;;0.90;;
74935;SDS011;63501;55.570;37.488;2022-09-27T08:18:57;1.65;;;1.00;;
74935;SDS011;63501;55.570;37.488;2022-09-27T08:21:23;0.55;;;0.55;;
74935;SDS011;63501;55.570;37.488;2022-09-27T08:23:48;0.68;;;0.68;;
74935;SDS011;63501;55.570;37.488;2022-09-27T08:26:14;1.08;;;0.77;;
74935;SDS011;63501;55.570;37.488;2022-09-27T08:28:39;0.60;;;0.60;;
74935;SDS011;63501;55.570;37.488;2022-09-27T08:31:05;0.73;;;0.70;;
74935;SDS011;63501;55.570;37.488;2022-09-27T08:33:30;1.30;;;0.55;;
74935;SDS011;63501;55.570;37.488;2022-09-27T08:35:56;1.77;;;1.08;;
74935;SDS011;63501;55.570;37.488;2022-09-27T08:38:21;1.02;;;0.90;;
74935;SDS011;63501;55.570;37.488;2022-09-27T08:40:51;0.90;;;0.85;;
74935;SDS011;63501;55.570;37.488;2022-09-27T08:43:38;2.08;;;1.50;;
74935;SDS011;63501;55.570;37.488;2022-09-27T08:48:35;2.92;;;1.25;;
74935;SDS011;63501;55.570;37.488;2022-09-27T08:51:04;2.47;;;0.93;;
74935;SDS011;63501;55.570;37.488;2022-09-27T08:53:34;0.65;;;0.65;;
74935;SDS011;63501;55.570;37.488;2022-09-27T08:56:06;1.20;;;0.77;;
74935;SDS011;63501;55.570;37.488;2022-09-27T08:58:34;3.75;;;0.73;;
74935;SDS011;63501;55.570;37.488;2022-09-27T09:01:17;0.85;;;0.80;;
74935;SDS011;63501;55.570;37.488;2022-09-27T09:03:52;1.25;;;0.80;;
74935;SDS011;63501;55.570;37.488;2022-09-27T09:11:51;0.75;;;0.50;;
74935;SDS011;63501;55.570;37.488;2022-09-27T09:34:42;1.35;;;1.10;;
74935;SDS011;63501;55.570;37.488;2022-09-27T09:39:42;1.38;;;0.90;;
74935;SDS011;63501;55.570;37.488;2022-09-27T09:44:46;1.08;;;0.98;;
74935;SDS011;63501;55.570;37.488;2022-09-27T09:53:01;1.88;;;1.15;;
74935;SDS011;63501;55.570;37.488;2022-09-27T09:55:54;1.08;;;1.08;;
74935;SDS011;63501;55.570;37.488;2022-09-27T09:58:37;1.48;;;0.93;;
74935;SDS011;63501;55.570;37.488;2022-09-27T10:01:15;0.50;;;0.50;;
74935;SDS011;63501;55.570;37.488;2022-09-27T10:03:45;0.85;;;0.85;;
74935;SDS011;63501;55.570;37.488;2022-09-27T10:06:10;0.90;;;0.60;;
74935;SDS011;63501;55.570;37.488;2022-09-27T10:08:38;0.98;;;0.98;;
74935;SDS011;63501;55.570;37.488;2022-09-27T10:11:05;1.00;;;1.00;;
74935;SDS011;63501;55.570;37.488;2022-09-27T10:13:32;1.58;;;1.13;;
74935;SDS011;63501;55.570;37.488;2022-09-27T10:16:09;1.25;;;0.90;;
74935;SDS011;63501;55.570;37.488;2022-09-27T10:18:38;1.17;;;1.10;;
74935;SDS011;63501;55.570;37.488;2022-09-27T10:21:07;0.90;;;0.90;;
74935;SDS011;63501;55.570;37.488;2022-09-27T10:24:00;0.80;;;0.70;;
74935;SDS011;63501;55.570;37.488;2022-09-27T10:26:30;2.15;;;1.30;;
74935;SDS011;63501;55.570;37.488;2022-09-27T10:28:57;1.40;;;1.30;;
74935;SDS011;63501;55.570;37.488;2022-09-27T10:31:38;2.33;;;1.13;;
74935;SDS011;63501;55.570;37.488;2022-09-27T10:34:16;3.97;;;1.67;;
74935;SDS011;63501;55.570;37.488;2022-09-27T10:39:36;5.22;;;1.10;;
74935;SDS011;63501;55.570;37.488;2022-09-27T10:42:18;4.32;;;1.40;;
74935;SDS011;63501;55.570;37.488;2022-09-27T10:47:55;1.00;;;1.00;;
74935;SDS011;63501;55.570;37.488;2022-09-27T10:50:24;1.20;;;0.80;;
74935;SDS011;63501;55.570;37.488;2022-09-27T10:53:04;0.73;;;0.60;;
74935;SDS011;63501;55.570;37.488;2022-09-27T10:55:37;3.85;;;1.08;;
74935;SDS011;63501;55.570;37.488;2022-09-27T10:58:05;0.98;;;0.88;;
74935;SDS011;63501;55.570;37.488;2022-09-27T11:00:32;1.73;;;0.95;;
74935;SDS011;63501;55.570;37.488;2022-09-27T11:03:02;1.63;;;1.10;;
74935;SDS011;63501;55.570;37.488;2022-09-27T11:05:32;1.20;;;0.95;;
74935;SDS011;63501;55.570;37.488;2022-09-27T11:08:02;1.83;;;1.40;;
74935;SDS011;63501;55.570;37.488;2022-09-27T11:13:25;2.60;;;1.38;;
74935;SDS011;63501;55.570;37.488;2022-09-27T11:26:59;2.05;;;1.10;;
74935;SDS011;63501;55.570;37.488;2022-09-27T11:32:31;2.15;;;1.70;;
74935;SDS011;63501;55.570;37.488;2022-09-27T11:41:01;1.13;;;1.02;;
74935;SDS011;63501;55.570;37.488;2022-09-27T11:46:35;2.00;;;1.70;;
74935;SDS011;63501;55.570;37.488;2022-09-27T11:54:13;1.55;;;1.40;;
74935;SDS011;63501;55.570;37.488;2022-09-27T12:05:03;1.70;;;0.95;;
74935;SDS011;63501;55.570;37.488;2022-09-27T12:08:06;1.42;;;1.20;;
74935;SDS011;63501;55.570;37.488;2022-09-27T12:10:58;4.65;;;1.50;;
74935;SDS011;63501;55.570;37.488;2022-09-27T12:13:33;1.75;;;0.95;;
74935;SDS011;63501;55.570;37.488;2022-09-27T12:16:03;1.20;;;1.00;;
74935;SDS011;63501;55.570;37.488;2022-09-27T12:18:37;2.55;;;1.10;;
74935;SDS011;63501;55.570;37.488;2022-09-27T12:21:05;3.38;;;0.95;;
74935;SDS011;63501;55.570;37.488;2022-09-27T12:23:43;1.20;;;1.08;;
74935;SDS011;63501;55.570;37.488;2022-09-27T12:26:16;1.63;;;1.42;;
74935;SDS011;63501;55.570;37.488;2022-09-27T12:28:55;1.70;;;1.38;;
74935;SDS011;63501;55.570;37.488;2022-09-27T12:36:56;3.03;;;1.20;;
74935;SDS011;63501;55.570;37.488;2022-09-27T12:39:39;1.52;;;1.08;;
74935;SDS011;63501;55.570;37.488;2022-09-27T12:42:39;1.70;;;1.13;;
74935;SDS011;63501;55.570;37.488;2022-09-27T12:45:10;1.05;;;0.95;;
74935;SDS011;63501;55.570;37.488;2022-09-27T12:50:21;1.77;;;1.10;;
74935;SDS011;63501;55.570;37.488;2022-09-27T12:53:13;2.53;;;1.35;;
74935;SDS011;63501;55.570;37.488;2022-09-27T12:56:12;1.10;;;1.00;;
74935;SDS011;63501;55.570;37.488;2022-09-27T13:07:41;4.45;;;0.93;;
74935;SDS011;63501;55.570;37.488;2022-09-27T13:13:11;1.40;;;1.00;;
74935;SDS011;63501;55.570;37.488;2022-09-27T13:15:41;1.48;;;0.90;;
74935;SDS011;63501;55.570;37.488;2022-09-27T13:18:48;1.58;;;0.85;;
74935;SDS011;63501;55.570;37.488;2022-09-27T13:21:06;1.48;;;1.35;;
74935;SDS011;63501;55.570;37.488;2022-09-27T13:26:00;4.65;;;1.10;;
74935;SDS011;63501;55.570;37.488;2022-09-27T13:31:14;1.02;;;0.85;;
74935;SDS011;63501;55.570;37.488;2022-09-27T13:47:03;2.60;;;1.40;;
74935;SDS011;63501;55.570;37.488;2022-09-27T13:49:37;2.92;;;1.65;;
74935;SDS011;63501;55.570;37.488;2022-09-27T13:55:01;2.30;;;2.00;;
74935;SDS011;63501;55.570;37.488;2022-09-27T14:00:02;2.38;;;1.52;;
74935;SDS011;63501;55.570;37.488;2022-09-27T14:02:37;1.88;;;1.40;;
74935;SDS011;63501;55.570;37.488;2022-09-27T14:05:11;4.47;;;1.90;;
74935;SDS011;63501;55.570;37.488;2022-09-27T14:07:44;3.50;;;1.70;;
74935;SDS011;63501;55.570;37.488;2022-09-27T14:10:14;2.10;;;1.52;;
74935;SDS011;63501;55.570;37.488;2022-09-27T14:12:45;4.18;;;1.80;;
74935;SDS011;63501;55.570;37.488;2022-09-27T14:15:20;3.17;;;1.70;;
74935;SDS011;63501;55.570;37.488;2022-09-27T14:17:49;4.72;;;2.22;;
74935;SDS011;63501;55.570;37.488;2022-09-27T14:23:22;2.50;;;1.63;;
74935;SDS011;63501;55.570;37.488;2022-09-27T14:25:50;4.05;;;1.90;;
74935;SDS011;63501;55.570;37.488;2022-09-27T14:28:21;2.65;;;1.75;;
74935;SDS011;63501;55.570;37.488;2022-09-27T14:31:03;1.88;;;1.67;;
74935;SDS011;63501;55.570;37.488;2022-09-27T14:33:38;1.63;;;1.35;;
74935;SDS011;63501;55.570;37.488;2022-09-27T14:36:07;2.50;;;1.60;;
74935;SDS011;63501;55.570;37.488;2022-09-27T14:39:32;1.73;;;1.48;;
74935;SDS011;63501;55.570;37.488;2022-09-27T14:42:03;1.67;;;1.50;;
74935;SDS011;63501;55.570;37.488;2022-09-27T14:44:30;2.13;;;1.63;;
74935;SDS011;63501;55.570;37.488;2022-09-27T14:50:00;5.65;;;1.90;;
74935;SDS011;63501;55.570;37.488;2022-09-27T14:52:29;3.80;;;1.88;;
74935;SDS011;63501;55.570;37.488;2022-09-27T14:55:01;3.33;;;1.67;;
74935;SDS011;63501;55.570;37.488;2022-09-27T14:57:51;2.80;;;2.03;;
74935;SDS011;63501;55.570;37.488;2022-09-27T15:00:23;7.07;;;1.63;;
74935;SDS011;63501;55.570;37.488;2022-09-27T15:02:52;3.67;;;2.05;;
74935;SDS011;63501;55.570;37.488;2022-09-27T15:05:20;3.92;;;1.00;;
74935;SDS011;63501;55.570;37.488;2022-09-27T15:07:47;3.75;;;2.22;;
74935;SDS011;63501;55.570;37.488;2022-09-27T15:10:15;1.25;;;1.15;;
74935;SDS011;63501;55.570;37.488;2022-09-27T15:12:48;3.17;;;1.73;;
74935;SDS011;63501;55.570;37.488;2022-09-27T15:17:48;3.15;;;1.60;;
74935;SDS011;63501;55.570;37.488;2022-09-27T15:20:18;4.53;;;1.65;;
74935;SDS011;63501;55.570;37.488;2022-09-27T15:22:44;3.90;;;2.05;;
74935;SDS011;63501;55.570;37.488;2022-09-27T15:25:15;3.08;;;1.83;;
74935;SDS011;63501;55.570;37.488;2022-09-27T15:28:12;3.00;;;1.98;;
74935;SDS011;63501;55.570;37.488;2022-09-27T15:30:49;4.07;;;1.85;;
74935;SDS011;63501;55.570;37.488;2022-09-27T15:33:20;2.45;;;1.98;;
74935;SDS011;63501;55.570;37.488;2022-09-27T15:35:49;1.27;;;1.08;;
74935;SDS011;63501;55.570;37.488;2022-09-27T15:38:30;5.25;;;1.65;;
74935;SDS011;63501;55.570;37.488;2022-09-27T15:41:07;5.88;;;1.52;;
74935;SDS011;63501;55.570;37.488;2022-09-27T15:43:35;3.33;;;1.45;;
74935;SDS011;63501;55.570;37.488;2022-09-27T15:51:51;2.85;;;2.25;;
74935;SDS011;63501;55.570;37.488;2022-09-27T15:54:19;6.00;;;2.15;;
74935;SDS011;63501;55.570;37.488;2022-09-27T15:56:49;2.33;;;1.85;;
74935;SDS011;63501;55.570;37.488;2022-09-27T15:59:19;4.28;;;2.08;;
74935;SDS011;63501;55.570;37.488;2022-09-27T16:01:48;1.25;;;1.08;;
74935;SDS011;63501;55.570;37.488;2022-09-27T16:04:16;3.63;;;1.90;;
74935;SDS011;63501;55.570;37.488;2022-09-27T16:06:42;3.00;;;2.15;;
74935;SDS011;63501;55.570;37.488;2022-09-27T16:09:17;2.35;;;1.63;;
74935;SDS011;63501;55.570;37.488;2022-09-27T16:11:45;2.65;;;2.17;;
74935;SDS011;63501;55.570;37.488;2022-09-27T16:14:12;1.98;;;1.30;;
74935;SDS011;63501;55.570;37.488;2022-09-27T16:16:43;4.38;;;1.95;;
74935;SDS011;63501;55.570;37.488;2022-09-27T16:19:11;3.35;;;1.90;;
74935;SDS011;63501;55.570;37.488;2022-09-27T16:21:36;2.97;;;1.60;;
74935;SDS011;63501;55.570;37.488;2022-09-27T16:24:03;4.57;;;1.90;;
74935;SDS011;63501;55.570;37.488;2022-09-27T16:26:29;2.13;;;1.27;;
74935;SDS011;63501;55.570;37.488;2022-09-27T16:28:55;1.70;;;1.27;;
74935;SDS011;63501;55.570;37.488;2022-09-27T16:31:20;2.83;;;1.70;;
74935;SDS011;63501;55.570;37.488;2022-09-27T16:33:47;3.20;;;1.50;;
74935;SDS011;63501;55.570;37.488;2022-09-27T16:36:14;2.92;;;1.67;;
74935;SDS011;63501;55.570;37.488;2022-09-27T16:38:46;4.13;;;1.58;;
74935;SDS011;63501;55.570;37.488;2022-09-27T16:41:13;2.88;;;1.52;;
74935;SDS011;63501;55.570;37.488;2022-09-27T16:43:38;1.92;;;1.23;;
74935;SDS011;63501;55.570;37.488;2022-09-27T16:46:07;3.40;;;1.60;;
74935;SDS011;63501;55.570;37.488;2022-09-27T16:48:36;4.82;;;1.73;;
74935;SDS011;63501;55.570;37.488;2022-09-27T16:51:03;4.90;;;1.75;;
74935;SDS011;63501;55.570;37.488;2022-09-27T16:53:48;3.25;;;1.80;;
74935;SDS011;63501;55.570;37.488;2022-09-27T16:56:13;1.30;;;1.20;;
74935;SDS011;63501;55.570;37.488;2022-09-27T16:58:39;2.60;;;1.55;;
74935;SDS011;63501;55.570;37.488;2022-09-27T17:01:05;2.83;;;1.55;;
74935;SDS011;63501;55.570;37.488;2022-09-27T17:03:32;2.55;;;1.70;;
74935;SDS011;63501;55.570;37.488;2022-09-27T17:06:00;3.75;;;1.83;;
74935;SDS011;63501;55.570;37.488;2022-09-27T17:08:28;0.98;;;0.93;;
74935;SDS011;63501;55.570;37.488;2022-09-27T17:10:54;2.50;;;1.70;;
74935;SDS011;63501;55.570;37.488;2022-09-27T17:13:21;2.08;;;1.17;;
74935;SDS011;63501;55.570;37.488;2022-09-27T17:15:47;2.30;;;1.63;;
74935;SDS011;63501;55.570;37.488;2022-09-27T17:18:13;2.60;;;1.60;;
74935;SDS011;63501;55.570;37.488;2022-09-27T17:20:38;2.47;;;1.40;;
74935;SDS011;63501;55.570;37.488;2022-09-27T17:23:04;2.40;;;1.48;;
74935;SDS011;63501;55.570;37.488;2022-09-27T17:25:30;2.30;;;2.05;;
74935;SDS011;63501;55.570;37.488;2022-09-27T17:27:56;4.25;;;1.95;;
74935;SDS011;63501;55.570;37.488;2022-09-27T17:30:22;2.58;;;1.40;;
74935;SDS011;63501;55.570;37.488;2022-09-27T17:32:48;2.75;;;1.88;;
74935;SDS011;63501;55.570;37.488;2022-09-27T17:35:14;4.78;;;1.92;;
74935;SDS011;63501;55.570;37.488;2022-09-27T17:37:40;3.53;;;1.75;;
74935;SDS011;63501;55.570;37.488;2022-09-27T17:40:06;3.17;;;2.25;;
74935;SDS011;63501;55.570;37.488;2022-09-27T17:42:32;3.58;;;1.85;;
74935;SDS011;63501;55.570;37.488;2022-09-27T17:45:01;4.35;;;2.47;;
74935;SDS011;63501;55.570;37.488;2022-09-27T17:47:28;2.05;;;1.63;;
74935;SDS011;63501;55.570;37.488;2022-09-27T17:50:13;2.58;;;2.13;;
74935;SDS011;63501;55.570;37.488;2022-09-27T17:52:55;3.40;;;1.40;;
74935;SDS011;63501;55.570;37.488;2022-09-27T17:57:48;2.05;;;1.23;;
74935;SDS011;63501;55.570;37.488;2022-09-27T18:00:14;2.40;;;2.05;;
74935;SDS011;63501;55.570;37.488;2022-09-27T18:02:40;1.17;;;1.05;;
74935;SDS011;63501;55.570;37.488;2022-09-27T18:05:06;3.10;;;1.52;;
74935;SDS011;63501;55.570;37.488;2022-09-27T18:07:33;1.90;;;1.60;;
74935;SDS011;63501;55.570;37.488;2022-09-27T18:09:58;2.13;;;1.08;;
74935;SDS011;63501;55.570;37.488;2022-09-27T18:12:26;2.65;;;1.52;;